Terminal Aerodrome Forecast
Issued by NWS

Home | Current Version | Previous Version | Text Only | Print | Product List | Glossary On
Versions: 1 2 3 4 5 6 7 8 9 10 11 12 13 14 15 16 17 18 19
000
FTUS42 KTAE 271127
TAFABY
TAF
KABY 271127Z 2712/2812 23006KT P6SM SCT008 OVC014
     FM271400 30010G15KT P6SM BKN015
     FM271800 31012G20KT P6SM BKN025
     FM272000 33015G22KT P6SM SCT025
     FM280000 31010KT P6SM SKC
     FM280700 31004KT P6SM SKC=

USA.gov is the U.S. government's official web portal to all federal, state and local government web resources and services.